Terminal Aerodrome Forecast
Issued by NWS Wakefield, VA

Home | Current Version | Previous Version | Text Only | Print | Product List | Glossary On
Versions: 1 2 3 4 5 6 7 8 9 10 11 12 13 14 15
000
FTUS41 KAKQ 250539
TAFRIC
TAF
KRIC 250539Z 2506/2606 19009KT P6SM SCT250
     FM251700 20012G19KT P6SM SCT050 SCT250
     FM252200 18008KT P6SM SCT250=

USA.gov is the U.S. government's official web portal to all federal, state and local government web resources and services.